sensor_id;sensor_type;location;lat;lon;timestamp;P1;durP1;ratioP1;P2;durP2;ratioP2
39502;SDS011;26970;49.900;10.774;2023-02-25T00:00:40;16.25;;;6.65;;
39502;SDS011;26970;49.900;10.774;2023-02-25T00:03:08;13.80;;;6.72;;
39502;SDS011;26970;49.900;10.774;2023-02-25T00:05:37;14.23;;;7.00;;
39502;SDS011;26970;49.900;10.774;2023-02-25T00:08:03;11.07;;;6.68;;
39502;SDS011;26970;49.900;10.774;2023-02-25T00:10:29;13.68;;;7.47;;
39502;SDS011;26970;49.900;10.774;2023-02-25T00:12:55;11.05;;;7.25;;
39502;SDS011;26970;49.900;10.774;2023-02-25T00:15:21;11.65;;;6.55;;
39502;SDS011;26970;49.900;10.774;2023-02-25T00:17:46;9.93;;;6.18;;
39502;SDS011;26970;49.900;10.774;2023-02-25T00:20:13;11.27;;;6.63;;
39502;SDS011;26970;49.900;10.774;2023-02-25T00:22:40;13.05;;;7.18;;
39502;SDS011;26970;49.900;10.774;2023-02-25T00:25:06;12.20;;;5.95;;
39502;SDS011;26970;49.900;10.774;2023-02-25T00:27:33;10.50;;;5.97;;
39502;SDS011;26970;49.900;10.774;2023-02-25T00:29:59;12.40;;;5.82;;
39502;SDS011;26970;49.900;10.774;2023-02-25T00:32:25;13.73;;;5.88;;
39502;SDS011;26970;49.900;10.774;2023-02-25T00:34:51;11.48;;;6.55;;
39502;SDS011;26970;49.900;10.774;2023-02-25T00:37:17;13.32;;;7.15;;
39502;SDS011;26970;49.900;10.774;2023-02-25T00:39:42;13.52;;;7.32;;
39502;SDS011;26970;49.900;10.774;2023-02-25T00:42:08;11.60;;;6.80;;
39502;SDS011;26970;49.900;10.774;2023-02-25T00:44:35;15.73;;;7.40;;
39502;SDS011;26970;49.900;10.774;2023-02-25T00:47:01;19.75;;;7.32;;
39502;SDS011;26970;49.900;10.774;2023-02-25T00:49:27;12.70;;;7.30;;
39502;SDS011;26970;49.900;10.774;2023-02-25T00:51:52;12.00;;;6.65;;
39502;SDS011;26970;49.900;10.774;2023-02-25T00:54:19;16.85;;;7.03;;
39502;SDS011;26970;49.900;10.774;2023-02-25T00:56:45;13.00;;;7.60;;
39502;SDS011;26970;49.900;10.774;2023-02-25T00:59:11;13.38;;;7.10;;
39502;SDS011;26970;49.900;10.774;2023-02-25T01:01:37;15.07;;;7.45;;
39502;SDS011;26970;49.900;10.774;2023-02-25T01:04:03;11.02;;;6.50;;
39502;SDS011;26970;49.900;10.774;2023-02-25T01:06:30;15.15;;;7.80;;
39502;SDS011;26970;49.900;10.774;2023-02-25T01:08:57;14.00;;;7.07;;
39502;SDS011;26970;49.900;10.774;2023-02-25T01:11:25;15.40;;;7.20;;
39502;SDS011;26970;49.900;10.774;2023-02-25T01:13:54;16.70;;;7.60;;
39502;SDS011;26970;49.900;10.774;2023-02-25T01:16:24;14.13;;;6.80;;
39502;SDS011;26970;49.900;10.774;2023-02-25T01:18:52;9.77;;;5.07;;
39502;SDS011;26970;49.900;10.774;2023-02-25T01:21:21;9.95;;;4.85;;
39502;SDS011;26970;49.900;10.774;2023-02-25T01:23:52;10.10;;;4.47;;
39502;SDS011;26970;49.900;10.774;2023-02-25T01:26:30;9.70;;;4.93;;
39502;SDS011;26970;49.900;10.774;2023-02-25T01:28:57;11.68;;;4.82;;
39502;SDS011;26970;49.900;10.774;2023-02-25T01:31:23;9.10;;;3.75;;
39502;SDS011;26970;49.900;10.774;2023-02-25T01:33:56;10.75;;;4.68;;
39502;SDS011;26970;49.900;10.774;2023-02-25T01:36:23;7.57;;;4.53;;
39502;SDS011;26970;49.900;10.774;2023-02-25T01:38:49;10.38;;;4.00;;
39502;SDS011;26970;49.900;10.774;2023-02-25T01:41:15;7.20;;;4.15;;
39502;SDS011;26970;49.900;10.774;2023-02-25T01:43:41;15.32;;;4.57;;
39502;SDS011;26970;49.900;10.774;2023-02-25T01:46:07;12.77;;;3.90;;
39502;SDS011;26970;49.900;10.774;2023-02-25T01:48:34;13.02;;;3.75;;
39502;SDS011;26970;49.900;10.774;2023-02-25T01:51:05;8.63;;;3.83;;
39502;SDS011;26970;49.900;10.774;2023-02-25T01:53:34;11.27;;;4.00;;
39502;SDS011;26970;49.900;10.774;2023-02-25T01:56:04;10.38;;;3.90;;
39502;SDS011;26970;49.900;10.774;2023-02-25T01:58:31;8.38;;;4.10;;
39502;SDS011;26970;49.900;10.774;2023-02-25T02:00:58;9.82;;;3.72;;
39502;SDS011;26970;49.900;10.774;2023-02-25T02:03:24;8.88;;;3.97;;
39502;SDS011;26970;49.900;10.774;2023-02-25T02:05:55;12.13;;;3.83;;
39502;SDS011;26970;49.900;10.774;2023-02-25T02:08:31;9.98;;;4.07;;
39502;SDS011;26970;49.900;10.774;2023-02-25T02:10:58;6.47;;;3.72;;
39502;SDS011;26970;49.900;10.774;2023-02-25T02:13:24;9.68;;;3.70;;
39502;SDS011;26970;49.900;10.774;2023-02-25T02:16:10;10.50;;;4.28;;
39502;SDS011;26970;49.900;10.774;2023-02-25T02:18:38;10.80;;;3.95;;
39502;SDS011;26970;49.900;10.774;2023-02-25T02:26:57;9.05;;;3.78;;
39502;SDS011;26970;49.900;10.774;2023-02-25T02:29:30;7.57;;;2.55;;
39502;SDS011;26970;49.900;10.774;2023-02-25T02:32:10;11.00;;;3.03;;
39502;SDS011;26970;49.900;10.774;2023-02-25T02:35:01;12.32;;;3.90;;
39502;SDS011;26970;49.900;10.774;2023-02-25T02:37:41;7.53;;;2.67;;
39502;SDS011;26970;49.900;10.774;2023-02-25T02:40:15;7.60;;;2.83;;
39502;SDS011;26970;49.900;10.774;2023-02-25T02:45:55;9.27;;;3.28;;
39502;SDS011;26970;49.900;10.774;2023-02-25T02:48:33;10.73;;;2.70;;
39502;SDS011;26970;49.900;10.774;2023-02-25T02:51:08;10.63;;;3.13;;
39502;SDS011;26970;49.900;10.774;2023-02-25T02:53:44;4.93;;;2.92;;
39502;SDS011;26970;49.900;10.774;2023-02-25T02:56:16;6.70;;;3.03;;
39502;SDS011;26970;49.900;10.774;2023-02-25T02:58:49;6.03;;;2.75;;
39502;SDS011;26970;49.900;10.774;2023-02-25T03:01:31;8.60;;;3.25;;
39502;SDS011;26970;49.900;10.774;2023-02-25T03:04:11;6.65;;;2.75;;
39502;SDS011;26970;49.900;10.774;2023-02-25T03:06:41;5.55;;;2.45;;
39502;SDS011;26970;49.900;10.774;2023-02-25T03:09:13;11.90;;;3.30;;
39502;SDS011;26970;49.900;10.774;2023-02-25T03:11:42;8.57;;;3.28;;
39502;SDS011;26970;49.900;10.774;2023-02-25T03:14:09;10.13;;;4.00;;
39502;SDS011;26970;49.900;10.774;2023-02-25T03:16:37;10.95;;;3.55;;
39502;SDS011;26970;49.900;10.774;2023-02-25T03:19:07;6.30;;;2.88;;
39502;SDS011;26970;49.900;10.774;2023-02-25T03:21:41;8.20;;;3.38;;
39502;SDS011;26970;49.900;10.774;2023-02-25T03:24:12;7.68;;;3.33;;
39502;SDS011;26970;49.900;10.774;2023-02-25T03:26:46;6.30;;;2.97;;
39502;SDS011;26970;49.900;10.774;2023-02-25T03:29:14;5.25;;;2.58;;
39502;SDS011;26970;49.900;10.774;2023-02-25T03:31:52;10.30;;;3.22;;
39502;SDS011;26970;49.900;10.774;2023-02-25T03:34:35;7.65;;;3.35;;
39502;SDS011;26970;49.900;10.774;2023-02-25T03:37:08;7.68;;;3.05;;
39502;SDS011;26970;49.900;10.774;2023-02-25T03:39:51;7.53;;;2.95;;
39502;SDS011;26970;49.900;10.774;2023-02-25T03:42:22;7.70;;;2.90;;
39502;SDS011;26970;49.900;10.774;2023-02-25T03:47:19;9.07;;;3.17;;
39502;SDS011;26970;49.900;10.774;2023-02-25T03:49:57;10.35;;;3.03;;
39502;SDS011;26970;49.900;10.774;2023-02-25T03:52:27;10.40;;;2.83;;
39502;SDS011;26970;49.900;10.774;2023-02-25T03:54:54;11.23;;;3.17;;
39502;SDS011;26970;49.900;10.774;2023-02-25T03:57:22;7.25;;;2.83;;
39502;SDS011;26970;49.900;10.774;2023-02-25T03:59:50;13.00;;;2.78;;
39502;SDS011;26970;49.900;10.774;2023-02-25T04:02:20;11.75;;;3.15;;
39502;SDS011;26970;49.900;10.774;2023-02-25T04:04:54;7.30;;;2.50;;
39502;SDS011;26970;49.900;10.774;2023-02-25T04:07:21;7.88;;;3.40;;
39502;SDS011;26970;49.900;10.774;2023-02-25T04:09:47;15.30;;;2.92;;
39502;SDS011;26970;49.900;10.774;2023-02-25T04:12:12;9.93;;;3.50;;
39502;SDS011;26970;49.900;10.774;2023-02-25T04:14:39;12.45;;;2.55;;
39502;SDS011;26970;49.900;10.774;2023-02-25T04:17:05;14.15;;;3.38;;
39502;SDS011;26970;49.900;10.774;2023-02-25T04:19:30;5.25;;;2.28;;
39502;SDS011;26970;49.900;10.774;2023-02-25T04:21:56;9.23;;;2.67;;
39502;SDS011;26970;49.900;10.774;2023-02-25T04:24:24;13.15;;;3.17;;
39502;SDS011;26970;49.900;10.774;2023-02-25T04:26:50;13.65;;;2.30;;
39502;SDS011;26970;49.900;10.774;2023-02-25T04:29:22;5.43;;;2.15;;
39502;SDS011;26970;49.900;10.774;2023-02-25T04:31:51;13.38;;;2.80;;
39502;SDS011;26970;49.900;10.774;2023-02-25T04:34:16;7.95;;;2.72;;
39502;SDS011;26970;49.900;10.774;2023-02-25T04:36:42;15.75;;;3.97;;
39502;SDS011;26970;49.900;10.774;2023-02-25T04:39:11;7.57;;;2.10;;
39502;SDS011;26970;49.900;10.774;2023-02-25T04:41:37;13.63;;;3.08;;
39502;SDS011;26970;49.900;10.774;2023-02-25T04:44:04;7.90;;;2.20;;
39502;SDS011;26970;49.900;10.774;2023-02-25T04:46:31;9.55;;;2.88;;
39502;SDS011;26970;49.900;10.774;2023-02-25T04:48:58;7.50;;;2.75;;
39502;SDS011;26970;49.900;10.774;2023-02-25T04:51:24;15.55;;;4.20;;
39502;SDS011;26970;49.900;10.774;2023-02-25T04:53:50;11.60;;;2.70;;
39502;SDS011;26970;49.900;10.774;2023-02-25T04:56:16;6.88;;;2.70;;
39502;SDS011;26970;49.900;10.774;2023-02-25T04:58:42;13.30;;;2.83;;
39502;SDS011;26970;49.900;10.774;2023-02-25T05:01:08;15.05;;;3.08;;
39502;SDS011;26970;49.900;10.774;2023-02-25T05:03:35;11.00;;;3.45;;
39502;SDS011;26970;49.900;10.774;2023-02-25T05:06:01;8.65;;;2.50;;
39502;SDS011;26970;49.900;10.774;2023-02-25T05:08:28;17.00;;;3.70;;
39502;SDS011;26970;49.900;10.774;2023-02-25T05:10:54;9.00;;;2.95;;
39502;SDS011;26970;49.900;10.774;2023-02-25T05:13:20;13.27;;;4.20;;
39502;SDS011;26970;49.900;10.774;2023-02-25T05:15:46;20.30;;;3.50;;
39502;SDS011;26970;49.900;10.774;2023-02-25T05:18:12;11.75;;;3.00;;
39502;SDS011;26970;49.900;10.774;2023-02-25T05:20:41;9.95;;;3.35;;
39502;SDS011;26970;49.900;10.774;2023-02-25T05:23:08;9.02;;;3.53;;
39502;SDS011;26970;49.900;10.774;2023-02-25T05:25:34;14.05;;;3.78;;
39502;SDS011;26970;49.900;10.774;2023-02-25T05:28:05;9.93;;;3.20;;
39502;SDS011;26970;49.900;10.774;2023-02-25T05:30:31;13.45;;;3.83;;
39502;SDS011;26970;49.900;10.774;2023-02-25T05:32:57;10.55;;;3.65;;
39502;SDS011;26970;49.900;10.774;2023-02-25T05:35:22;7.95;;;3.30;;
39502;SDS011;26970;49.900;10.774;2023-02-25T05:37:48;8.88;;;3.42;;
39502;SDS011;26970;49.900;10.774;2023-02-25T05:40:14;12.55;;;3.50;;
39502;SDS011;26970;49.900;10.774;2023-02-25T05:42:39;17.35;;;4.10;;
39502;SDS011;26970;49.900;10.774;2023-02-25T05:45:06;10.05;;;3.42;;
39502;SDS011;26970;49.900;10.774;2023-02-25T05:47:32;11.23;;;3.40;;
39502;SDS011;26970;49.900;10.774;2023-02-25T05:49:58;8.93;;;3.65;;
39502;SDS011;26970;49.900;10.774;2023-02-25T05:52:24;7.43;;;3.17;;
39502;SDS011;26970;49.900;10.774;2023-02-25T05:54:49;8.57;;;3.65;;
39502;SDS011;26970;49.900;10.774;2023-02-25T05:57:15;7.13;;;3.25;;
39502;SDS011;26970;49.900;10.774;2023-02-25T05:59:40;7.55;;;3.70;;
39502;SDS011;26970;49.900;10.774;2023-02-25T06:02:06;12.88;;;3.80;;
39502;SDS011;26970;49.900;10.774;2023-02-25T06:04:31;16.77;;;3.70;;
39502;SDS011;26970;49.900;10.774;2023-02-25T06:06:57;7.40;;;2.83;;
39502;SDS011;26970;49.900;10.774;2023-02-25T06:09:23;7.35;;;3.33;;
39502;SDS011;26970;49.900;10.774;2023-02-25T06:11:48;13.10;;;4.43;;
39502;SDS011;26970;49.900;10.774;2023-02-25T06:14:14;11.05;;;3.50;;
39502;SDS011;26970;49.900;10.774;2023-02-25T06:16:40;7.72;;;3.30;;
39502;SDS011;26970;49.900;10.774;2023-02-25T06:19:06;11.13;;;3.80;;
39502;SDS011;26970;49.900;10.774;2023-02-25T06:21:33;10.55;;;3.30;;
39502;SDS011;26970;49.900;10.774;2023-02-25T06:24:00;10.27;;;3.67;;
39502;SDS011;26970;49.900;10.774;2023-02-25T06:26:26;7.03;;;3.13;;
39502;SDS011;26970;49.900;10.774;2023-02-25T06:28:52;14.25;;;3.70;;
39502;SDS011;26970;49.900;10.774;2023-02-25T06:31:19;9.48;;;3.25;;
39502;SDS011;26970;49.900;10.774;2023-02-25T06:33:46;11.60;;;3.38;;
39502;SDS011;26970;49.900;10.774;2023-02-25T06:36:14;9.00;;;3.88;;
39502;SDS011;26970;49.900;10.774;2023-02-25T06:38:41;7.20;;;3.63;;
39502;SDS011;26970;49.900;10.774;2023-02-25T06:41:08;7.57;;;3.45;;
39502;SDS011;26970;49.900;10.774;2023-02-25T06:43:38;13.07;;;3.42;;
39502;SDS011;26970;49.900;10.774;2023-02-25T06:46:04;7.90;;;3.15;;
39502;SDS011;26970;49.900;10.774;2023-02-25T06:48:31;8.70;;;3.30;;
39502;SDS011;26970;49.900;10.774;2023-02-25T06:50:56;9.20;;;3.30;;
39502;SDS011;26970;49.900;10.774;2023-02-25T06:53:22;8.10;;;3.35;;
39502;SDS011;26970;49.900;10.774;2023-02-25T06:55:48;11.90;;;3.88;;
39502;SDS011;26970;49.900;10.774;2023-02-25T06:58:14;8.48;;;3.40;;
39502;SDS011;26970;49.900;10.774;2023-02-25T07:00:41;10.27;;;3.28;;
39502;SDS011;26970;49.900;10.774;2023-02-25T07:03:08;8.68;;;3.30;;
39502;SDS011;26970;49.900;10.774;2023-02-25T07:05:38;8.35;;;3.28;;
39502;SDS011;26970;49.900;10.774;2023-02-25T07:08:03;7.10;;;2.80;;
39502;SDS011;26970;49.900;10.774;2023-02-25T07:10:29;8.27;;;3.30;;
39502;SDS011;26970;49.900;10.774;2023-02-25T07:12:55;14.48;;;3.42;;
39502;SDS011;26970;49.900;10.774;2023-02-25T07:15:21;10.98;;;3.38;;
39502;SDS011;26970;49.900;10.774;2023-02-25T07:17:46;9.63;;;4.05;;
39502;SDS011;26970;49.900;10.774;2023-02-25T07:20:12;10.45;;;3.40;;
39502;SDS011;26970;49.900;10.774;2023-02-25T07:22:38;13.55;;;3.88;;
39502;SDS011;26970;49.900;10.774;2023-02-25T07:25:06;8.88;;;3.78;;
39502;SDS011;26970;49.900;10.774;2023-02-25T07:27:33;7.28;;;3.28;;
39502;SDS011;26970;49.900;10.774;2023-02-25T07:29:58;8.80;;;3.38;;
39502;SDS011;26970;49.900;10.774;2023-02-25T07:32:25;17.50;;;5.45;;
39502;SDS011;26970;49.900;10.774;2023-02-25T07:34:51;11.93;;;4.68;;
39502;SDS011;26970;49.900;10.774;2023-02-25T07:37:16;14.68;;;3.88;;
39502;SDS011;26970;49.900;10.774;2023-02-25T07:39:42;14.57;;;3.65;;
39502;SDS011;26970;49.900;10.774;2023-02-25T07:42:08;14.15;;;4.38;;
39502;SDS011;26970;49.900;10.774;2023-02-25T07:44:33;12.27;;;3.65;;
39502;SDS011;26970;49.900;10.774;2023-02-25T07:46:59;12.40;;;3.63;;
39502;SDS011;26970;49.900;10.774;2023-02-25T07:49:25;12.95;;;3.67;;
39502;SDS011;26970;49.900;10.774;2023-02-25T07:51:51;11.07;;;3.22;;
39502;SDS011;26970;49.900;10.774;2023-02-25T07:54:19;9.82;;;4.28;;
39502;SDS011;26970;49.900;10.774;2023-02-25T07:56:45;10.02;;;3.90;;
39502;SDS011;26970;49.900;10.774;2023-02-25T07:59:14;8.98;;;3.70;;
39502;SDS011;26970;49.900;10.774;2023-02-25T08:01:40;13.38;;;4.50;;
39502;SDS011;26970;49.900;10.774;2023-02-25T08:04:06;10.85;;;3.55;;
39502;SDS011;26970;49.900;10.774;2023-02-25T08:06:34;11.95;;;3.70;;
39502;SDS011;26970;49.900;10.774;2023-02-25T08:09:02;11.45;;;3.05;;
39502;SDS011;26970;49.900;10.774;2023-02-25T08:11:29;11.45;;;3.90;;
39502;SDS011;26970;49.900;10.774;2023-02-25T08:13:55;9.98;;;4.22;;
39502;SDS011;26970;49.900;10.774;2023-02-25T08:16:22;12.10;;;4.20;;
39502;SDS011;26970;49.900;10.774;2023-02-25T08:18:48;8.55;;;3.03;;
39502;SDS011;26970;49.900;10.774;2023-02-25T08:21:15;13.45;;;4.32;;
39502;SDS011;26970;49.900;10.774;2023-02-25T08:23:42;12.77;;;4.15;;
39502;SDS011;26970;49.900;10.774;2023-02-25T08:26:08;9.55;;;3.75;;
39502;SDS011;26970;49.900;10.774;2023-02-25T08:28:34;10.02;;;3.40;;
39502;SDS011;26970;49.900;10.774;2023-02-25T08:31:00;11.88;;;3.60;;
39502;SDS011;26970;49.900;10.774;2023-02-25T08:33:27;11.13;;;4.53;;
39502;SDS011;26970;49.900;10.774;2023-02-25T08:35:54;14.55;;;4.35;;
39502;SDS011;26970;49.900;10.774;2023-02-25T08:38:19;7.28;;;3.55;;
39502;SDS011;26970;49.900;10.774;2023-02-25T08:40:45;8.35;;;3.15;;
39502;SDS011;26970;49.900;10.774;2023-02-25T08:43:11;10.88;;;3.72;;
39502;SDS011;26970;49.900;10.774;2023-02-25T08:45:37;8.90;;;3.25;;
39502;SDS011;26970;49.900;10.774;2023-02-25T08:48:05;11.57;;;3.28;;
39502;SDS011;26970;49.900;10.774;2023-02-25T08:50:31;13.77;;;3.20;;
39502;SDS011;26970;49.900;10.774;2023-02-25T08:52:56;9.82;;;2.63;;
39502;SDS011;26970;49.900;10.774;2023-02-25T08:55:23;8.73;;;2.92;;
39502;SDS011;26970;49.900;10.774;2023-02-25T08:57:52;9.15;;;3.15;;
39502;SDS011;26970;49.900;10.774;2023-02-25T09:00:18;11.75;;;3.42;;
39502;SDS011;26970;49.900;10.774;2023-02-25T09:02:45;6.55;;;2.50;;
39502;SDS011;26970;49.900;10.774;2023-02-25T09:05:11;13.85;;;2.88;;
39502;SDS011;26970;49.900;10.774;2023-02-25T09:07:37;8.30;;;2.72;;
39502;SDS011;26970;49.900;10.774;2023-02-25T09:10:03;6.82;;;3.70;;
39502;SDS011;26970;49.900;10.774;2023-02-25T09:12:33;6.65;;;2.63;;
39502;SDS011;26970;49.900;10.774;2023-02-25T09:15:00;14.13;;;3.70;;
39502;SDS011;26970;49.900;10.774;2023-02-25T09:17:26;9.60;;;3.67;;
39502;SDS011;26970;49.900;10.774;2023-02-25T09:19:51;12.18;;;4.43;;
39502;SDS011;26970;49.900;10.774;2023-02-25T09:22:17;6.32;;;3.28;;
39502;SDS011;26970;49.900;10.774;2023-02-25T09:24:43;9.95;;;3.55;;
39502;SDS011;26970;49.900;10.774;2023-02-25T09:27:10;12.65;;;3.92;;
39502;SDS011;26970;49.900;10.774;2023-02-25T09:29:36;15.45;;;3.78;;
39502;SDS011;26970;49.900;10.774;2023-02-25T09:32:04;8.68;;;3.45;;
39502;SDS011;26970;49.900;10.774;2023-02-25T09:34:30;18.75;;;4.40;;
39502;SDS011;26970;49.900;10.774;2023-02-25T09:37:04;10.52;;;3.95;;
39502;SDS011;26970;49.900;10.774;2023-02-25T09:39:30;14.52;;;3.88;;
39502;SDS011;26970;49.900;10.774;2023-02-25T09:42:10;8.35;;;3.78;;
39502;SDS011;26970;49.900;10.774;2023-02-25T09:44:42;8.57;;;3.53;;
39502;SDS011;26970;49.900;10.774;2023-02-25T10:00:36;9.45;;;4.20;;
39502;SDS011;26970;49.900;10.774;2023-02-25T10:05:45;10.55;;;4.50;;
39502;SDS011;26970;49.900;10.774;2023-02-25T10:08:28;12.05;;;4.60;;
39502;SDS011;26970;49.900;10.774;2023-02-25T10:11:17;8.68;;;3.90;;
39502;SDS011;26970;49.900;10.774;2023-02-25T10:16:43;8.55;;;3.50;;
39502;SDS011;26970;49.900;10.774;2023-02-25T10:27:52;7.07;;;3.47;;
39502;SDS011;26970;49.900;10.774;2023-02-25T10:30:22;7.25;;;3.58;;
39502;SDS011;26970;49.900;10.774;2023-02-25T10:35:19;11.52;;;3.80;;
39502;SDS011;26970;49.900;10.774;2023-02-25T10:37:46;7.72;;;4.10;;
39502;SDS011;26970;49.900;10.774;2023-02-25T10:40:13;10.85;;;4.43;;
39502;SDS011;26970;49.900;10.774;2023-02-25T10:42:42;6.63;;;3.25;;
39502;SDS011;26970;49.900;10.774;2023-02-25T10:45:11;7.30;;;3.33;;
39502;SDS011;26970;49.900;10.774;2023-02-25T10:47:44;7.38;;;3.72;;
39502;SDS011;26970;49.900;10.774;2023-02-25T10:50:14;6.95;;;3.67;;
39502;SDS011;26970;49.900;10.774;2023-02-25T10:55:34;7.80;;;4.20;;
39502;SDS011;26970;49.900;10.774;2023-02-25T11:00:47;6.22;;;3.90;;
39502;SDS011;26970;49.900;10.774;2023-02-25T11:03:22;6.25;;;3.58;;
39502;SDS011;26970;49.900;10.774;2023-02-25T11:05:49;5.78;;;3.45;;
39502;SDS011;26970;49.900;10.774;2023-02-25T11:11:37;6.63;;;3.72;;
39502;SDS011;26970;49.900;10.774;2023-02-25T11:14:00;11.57;;;4.45;;
39502;SDS011;26970;49.900;10.774;2023-02-25T11:16:26;9.52;;;4.00;;
39502;SDS011;26970;49.900;10.774;2023-02-25T11:18:56;9.00;;;3.90;;
39502;SDS011;26970;49.900;10.774;2023-02-25T11:21:27;7.25;;;4.03;;
39502;SDS011;26970;49.900;10.774;2023-02-25T11:28:52;9.27;;;3.88;;
39502;SDS011;26970;49.900;10.774;2023-02-25T11:31:23;6.65;;;3.72;;
39502;SDS011;26970;49.900;10.774;2023-02-25T11:33:58;11.15;;;4.57;;
39502;SDS011;26970;49.900;10.774;2023-02-25T11:36:31;9.55;;;4.40;;
39502;SDS011;26970;49.900;10.774;2023-02-25T11:41:43;8.43;;;3.25;;
39502;SDS011;26970;49.900;10.774;2023-02-25T11:47:19;12.43;;;3.13;;
39502;SDS011;26970;49.900;10.774;2023-02-25T11:53:13;4.68;;;3.30;;
39502;SDS011;26970;49.900;10.774;2023-02-25T12:04:28;5.80;;;2.85;;
39502;SDS011;26970;49.900;10.774;2023-02-25T12:44:29;2.22;;;1.67;;
39502;SDS011;26970;49.900;10.774;2023-02-25T12:50:33;3.10;;;1.77;;
39502;SDS011;26970;49.900;10.774;2023-02-25T13:09:20;3.15;;;1.95;;
39502;SDS011;26970;49.900;10.774;2023-02-25T13:15:00;3.38;;;1.88;;
39502;SDS011;26970;49.900;10.774;2023-02-25T13:17:36;3.05;;;1.60;;
39502;SDS011;26970;49.900;10.774;2023-02-25T13:20:49;2.33;;;1.50;;
39502;SDS011;26970;49.900;10.774;2023-02-25T13:26:03;3.97;;;1.42;;
39502;SDS011;26970;49.900;10.774;2023-02-25T13:28:52;1.95;;;1.30;;
39502;SDS011;26970;49.900;10.774;2023-02-25T13:31:47;3.92;;;1.35;;
39502;SDS011;26970;49.900;10.774;2023-02-25T13:34:23;2.67;;;1.30;;
39502;SDS011;26970;49.900;10.774;2023-02-25T13:45:24;4.05;;;1.52;;
39502;SDS011;26970;49.900;10.774;2023-02-25T13:56:27;2.35;;;1.52;;
39502;SDS011;26970;49.900;10.774;2023-02-25T14:04:54;4.00;;;2.10;;
39502;SDS011;26970;49.900;10.774;2023-02-25T14:10:28;2.38;;;1.13;;
39502;SDS011;26970;49.900;10.774;2023-02-25T14:15:54;1.20;;;1.10;;
39502;SDS011;26970;49.900;10.774;2023-02-25T14:18:48;2.47;;;1.52;;
39502;SDS011;26970;49.900;10.774;2023-02-25T14:23:59;10.70;;;2.33;;
39502;SDS011;26970;49.900;10.774;2023-02-25T14:35:11;4.60;;;1.98;;
39502;SDS011;26970;49.900;10.774;2023-02-25T14:45:35;4.20;;;1.40;;
39502;SDS011;26970;49.900;10.774;2023-02-25T15:03:57;1.52;;;1.10;;
39502;SDS011;26970;49.900;10.774;2023-02-25T15:19:15;4.65;;;1.38;;
39502;SDS011;26970;49.900;10.774;2023-02-25T15:22:21;6.30;;;1.60;;
39502;SDS011;26970;49.900;10.774;2023-02-25T15:24:49;1.33;;;1.10;;
39502;SDS011;26970;49.900;10.774;2023-02-25T15:30:08;2.85;;;1.70;;
39502;SDS011;26970;49.900;10.774;2023-02-25T15:42:57;5.32;;;2.00;;
39502;SDS011;26970;49.900;10.774;2023-02-25T15:45:52;1.95;;;1.45;;
39502;SDS011;26970;49.900;10.774;2023-02-25T15:48:27;3.40;;;1.40;;
39502;SDS011;26970;49.900;10.774;2023-02-25T15:50:55;6.18;;;2.47;;
39502;SDS011;26970;49.900;10.774;2023-02-25T15:55:50;5.78;;;2.30;;
39502;SDS011;26970;49.900;10.774;2023-02-25T16:00:50;7.43;;;2.60;;
39502;SDS011;26970;49.900;10.774;2023-02-25T16:06:01;5.60;;;2.65;;
39502;SDS011;26970;49.900;10.774;2023-02-25T16:08:52;5.78;;;2.50;;
39502;SDS011;26970;49.900;10.774;2023-02-25T16:11:31;4.88;;;2.40;;
39502;SDS011;26970;49.900;10.774;2023-02-25T16:13:58;5.07;;;2.30;;
39502;SDS011;26970;49.900;10.774;2023-02-25T16:16:27;2.17;;;1.45;;
39502;SDS011;26970;49.900;10.774;2023-02-25T16:18:54;2.42;;;1.50;;
39502;SDS011;26970;49.900;10.774;2023-02-25T16:21:26;3.40;;;1.90;;
39502;SDS011;26970;49.900;10.774;2023-02-25T16:23:57;1.98;;;1.63;;
39502;SDS011;26970;49.900;10.774;2023-02-25T16:26:47;1.88;;;1.33;;
39502;SDS011;26970;49.900;10.774;2023-02-25T16:29:26;2.88;;;1.77;;
39502;SDS011;26970;49.900;10.774;2023-02-25T16:37:33;1.65;;;1.42;;
39502;SDS011;26970;49.900;10.774;2023-02-25T16:40:01;2.78;;;1.33;;
39502;SDS011;26970;49.900;10.774;2023-02-25T16:42:30;1.40;;;1.30;;
39502;SDS011;26970;49.900;10.774;2023-02-25T16:45:03;4.07;;;1.67;;
39502;SDS011;26970;49.900;10.774;2023-02-25T16:47:31;2.42;;;1.48;;
39502;SDS011;26970;49.900;10.774;2023-02-25T16:50:01;4.80;;;1.70;;
39502;SDS011;26970;49.900;10.774;2023-02-25T16:52:32;3.03;;;1.60;;
39502;SDS011;26970;49.900;10.774;2023-02-25T16:55:05;3.92;;;2.00;;
39502;SDS011;26970;49.900;10.774;2023-02-25T16:57:36;2.28;;;1.90;;
39502;SDS011;26970;49.900;10.774;2023-02-25T17:00:13;1.88;;;1.40;;
39502;SDS011;26970;49.900;10.774;2023-02-25T17:02:48;4.40;;;1.95;;
39502;SDS011;26970;49.900;10.774;2023-02-25T17:05:28;1.48;;;1.30;;
39502;SDS011;26970;49.900;10.774;2023-02-25T17:07:57;2.78;;;1.70;;
39502;SDS011;26970;49.900;10.774;2023-02-25T17:10:26;3.83;;;2.67;;
39502;SDS011;26970;49.900;10.774;2023-02-25T17:13:08;9.95;;;3.95;;
39502;SDS011;26970;49.900;10.774;2023-02-25T17:15:58;15.73;;;7.25;;
39502;SDS011;26970;49.900;10.774;2023-02-25T17:21:05;12.93;;;6.40;;
39502;SDS011;26970;49.900;10.774;2023-02-25T17:23:40;3.70;;;2.33;;
39502;SDS011;26970;49.900;10.774;2023-02-25T17:26:10;4.10;;;2.30;;
39502;SDS011;26970;49.900;10.774;2023-02-25T17:28:37;3.00;;;1.77;;
39502;SDS011;26970;49.900;10.774;2023-02-25T17:31:05;6.43;;;4.47;;
39502;SDS011;26970;49.900;10.774;2023-02-25T17:33:44;5.75;;;4.10;;
39502;SDS011;26970;49.900;10.774;2023-02-25T17:36:15;4.80;;;3.53;;
39502;SDS011;26970;49.900;10.774;2023-02-25T17:38:54;5.40;;;2.95;;
39502;SDS011;26970;49.900;10.774;2023-02-25T17:41:37;5.38;;;3.03;;
39502;SDS011;26970;49.900;10.774;2023-02-25T17:44:11;6.35;;;4.15;;
39502;SDS011;26970;49.900;10.774;2023-02-25T17:47:06;4.57;;;2.85;;
39502;SDS011;26970;49.900;10.774;2023-02-25T17:49:34;4.63;;;2.90;;
39502;SDS011;26970;49.900;10.774;2023-02-25T17:52:03;5.47;;;2.47;;
39502;SDS011;26970;49.900;10.774;2023-02-25T17:54:34;4.00;;;2.00;;
39502;SDS011;26970;49.900;10.774;2023-02-25T17:57:09;5.15;;;1.63;;
39502;SDS011;26970;49.900;10.774;2023-02-25T17:59:48;1.52;;;1.40;;
39502;SDS011;26970;49.900;10.774;2023-02-25T18:07:37;2.38;;;1.70;;
39502;SDS011;26970;49.900;10.774;2023-02-25T18:10:09;3.50;;;1.75;;
39502;SDS011;26970;49.900;10.774;2023-02-25T18:12:58;2.55;;;1.70;;
39502;SDS011;26970;49.900;10.774;2023-02-25T18:15:27;2.20;;;1.73;;
39502;SDS011;26970;49.900;10.774;2023-02-25T18:18:04;1.70;;;1.52;;
39502;SDS011;26970;49.900;10.774;2023-02-25T18:20:40;1.50;;;1.30;;
39502;SDS011;26970;49.900;10.774;2023-02-25T18:25:46;3.22;;;1.88;;
39502;SDS011;26970;49.900;10.774;2023-02-25T18:28:19;3.00;;;1.75;;
39502;SDS011;26970;49.900;10.774;2023-02-25T18:30:46;2.00;;;1.80;;
39502;SDS011;26970;49.900;10.774;2023-02-25T18:33:13;2.58;;;1.88;;
39502;SDS011;26970;49.900;10.774;2023-02-25T18:35:40;2.67;;;1.63;;
39502;SDS011;26970;49.900;10.774;2023-02-25T18:38:09;4.20;;;2.00;;
39502;SDS011;26970;49.900;10.774;2023-02-25T18:43:06;5.40;;;2.58;;
39502;SDS011;26970;49.900;10.774;2023-02-25T18:45:38;3.53;;;2.25;;
39502;SDS011;26970;49.900;10.774;2023-02-25T18:48:05;4.72;;;2.22;;
39502;SDS011;26970;49.900;10.774;2023-02-25T18:50:31;4.90;;;2.30;;
39502;SDS011;26970;49.900;10.774;2023-02-25T18:52:57;2.58;;;1.90;;
39502;SDS011;26970;49.900;10.774;2023-02-25T18:55:24;3.85;;;2.25;;